Time;durP1;ratioP1;P1;durP2;ratioP2;P2;SDS_P1;SDS_P2;PMS_P1;PMS_P2;Temp;Humidity;BMP_temperature;BMP_pressure;BME280_temperature;BME280_humidity;BME280_pressure;Samples;Min_cycle;Max_cycle;Signal;HPM_P1;HPM_P2
2021/09/21 00:00:20;;;;;;;;;;;10.80;99.90;;;;;;5093383;28;19947;-72
2021/09/21 00:02:46;;;;;;;;;;;10.90;99.90;;;;;;5093354;28;20425;-72
2021/09/21 00:05:11;;;;;;;;;;;10.90;99.90;;;;;;5092507;28;19945;-72
2021/09/21 00:07:37;;;;;;;;;;;11.00;99.90;;;;;;5092916;28;19915;-72
2021/09/21 00:10:03;;;;;;;;;;;11.00;99.90;;;;;;5093169;28;19969;-72
2021/09/21 00:12:29;;;;;;;;;;;11.00;99.90;;;;;;5093070;28;20324;-72
2021/09/21 00:14:54;;;;;;;;;;;11.00;99.90;;;;;;5092512;28;19916;-72
2021/09/21 00:17:20;;;;;;;;;;;10.90;99.90;;;;;;5093017;28;20056;-72
2021/09/21 00:19:45;;;;;;;;;;;10.90;99.90;;;;;;5092682;28;20053;-72
2021/09/21 00:22:11;;;;;;;;;;;10.80;99.90;;;;;;5092786;28;20278;-72
2021/09/21 00:24:36;;;;;;;;;;;10.80;99.90;;;;;;5092063;28;20273;-72
2021/09/21 00:27:02;;;;;;;;;;;10.80;99.90;;;;;;5092718;28;19908;-73
2021/09/21 00:29:27;;;;;;;;;;;10.80;99.90;;;;;;5093134;28;19912;-71
2021/09/21 00:31:59;;;;;;;;;;;10.80;99.90;;;;;;5092683;28;19909;-72
2021/09/21 00:34:35;;;;;;;;;;;10.80;99.90;;;;;;5092510;28;20358;-72
2021/09/21 00:37:01;;;;;;;;;;;10.80;99.90;;;;;;5092638;28;19991;-71
2021/09/21 00:39:26;;;;;;;;;;;10.80;99.90;;;;;;5092488;28;19951;-73
2021/09/21 00:41:52;;;;;;;;;;;10.90;99.90;;;;;;5092513;28;19915;-72
2021/09/21 00:44:19;;;;;;;;;;;10.80;99.90;;;;;;5092019;28;19958;-72
2021/09/21 00:46:44;;;;;;;;;;;10.90;99.90;;;;;;5092179;28;19908;-74
2021/09/21 00:49:10;;;;;;;;;;;10.90;99.90;;;;;;5092312;28;19934;-72
2021/09/21 00:51:35;;;;;;;;;;;10.80;99.90;;;;;;5092303;28;19951;-72
2021/09/21 00:54:01;;;;;;;;;;;10.90;99.90;;;;;;5091490;28;19908;-73
2021/09/21 00:56:26;;;;;;;;;;;10.90;99.90;;;;;;5091980;28;19914;-72
2021/09/21 00:58:52;;;;;;;;;;;10.90;99.90;;;;;;5090967;28;20358;-72
2021/09/21 01:01:17;;;;;;;;;;;10.90;99.90;;;;;;5092097;28;19991;-72
2021/09/21 01:03:43;;;;;;;;;;;10.90;99.90;;;;;;5091771;28;19958;-74
2021/09/21 01:06:08;;;;;;;;;;;10.90;99.90;;;;;;5091332;28;19908;-72
2021/09/21 01:08:34;;;;;;;;;;;11.00;99.90;;;;;;5092147;28;19908;-72
2021/09/21 01:10:59;;;;;;;;;;;11.00;99.90;;;;;;5091939;28;19915;-72
2021/09/21 01:13:25;;;;;;;;;;;10.90;99.90;;;;;;5091859;28;19955;-71
2021/09/21 01:15:51;;;;;;;;;;;10.90;99.90;;;;;;5091419;28;19966;-72
2021/09/21 01:18:17;;;;;;;;;;;10.90;99.90;;;;;;5091748;28;20366;-71
2021/09/21 01:20:42;;;;;;;;;;;10.90;99.90;;;;;;5091161;28;20007;-71
2021/09/21 01:23:08;;;;;;;;;;;10.90;99.90;;;;;;5091444;28;19908;-72
2021/09/21 01:25:33;;;;;;;;;;;10.90;99.90;;;;;;5091005;28;19908;-73
2021/09/21 01:27:59;;;;;;;;;;;10.90;99.90;;;;;;5091676;28;19908;-71
2021/09/21 01:30:25;;;;;;;;;;;10.90;99.90;;;;;;5091534;28;19935;-72
2021/09/21 01:32:50;;;;;;;;;;;10.90;99.90;;;;;;5091433;28;19943;-73
2021/09/21 01:35:16;;;;;;;;;;;10.90;99.90;;;;;;5089697;28;20298;-73
2021/09/21 01:37:43;;;;;;;;;;;10.90;99.90;;;;;;5091480;28;19908;-73
2021/09/21 01:40:08;;;;;;;;;;;10.90;99.90;;;;;;5091441;28;19919;-73
2021/09/21 01:42:34;;;;;;;;;;;10.90;99.90;;;;;;5091443;28;19912;-74
2021/09/21 01:44:59;;;;;;;;;;;10.90;99.90;;;;;;5089605;28;19999;-73
2021/09/21 01:47:25;;;;;;;;;;;11.00;99.90;;;;;;5091175;28;19923;-73
2021/09/21 01:52:24;;;;;;;;;;;10.90;99.90;;;;;;5091551;28;19935;-73
2021/09/21 02:00:11;;;;;;;;;;;10.90;99.90;;;;;;5091507;28;19915;-73
2021/09/21 02:02:37;;;;;;;;;;;10.90;99.90;;;;;;5091087;28;19908;-73
2021/09/21 02:05:02;;;;;;;;;;;11.00;99.90;;;;;;5090567;28;19998;-72
2021/09/21 02:07:28;;;;;;;;;;;11.00;99.90;;;;;;5091192;28;19988;-73
2021/09/21 02:09:53;;;;;;;;;;;10.90;99.90;;;;;;5091050;28;19912;-73
2021/09/21 02:12:19;;;;;;;;;;;10.90;99.90;;;;;;5090914;28;19951;-73
2021/09/21 02:14:44;;;;;;;;;;;10.90;99.90;;;;;;5090578;28;19939;-73
2021/09/21 02:17:10;;;;;;;;;;;10.80;99.90;;;;;;5091007;28;19908;-73
2021/09/21 02:19:37;;;;;;;;;;;10.90;99.90;;;;;;5091008;28;19918;-73
2021/09/21 02:22:03;;;;;;;;;;;10.90;99.90;;;;;;5090732;28;20255;-73
2021/09/21 02:24:29;;;;;;;;;;;10.90;99.90;;;;;;5090308;28;19916;-73
2021/09/21 02:26:54;;;;;;;;;;;11.00;99.90;;;;;;5090802;28;19908;-72
2021/09/21 02:29:20;;;;;;;;;;;10.90;99.90;;;;;;5090941;28;19943;-73
2021/09/21 02:31:45;;;;;;;;;;;11.00;99.90;;;;;;5092749;28;20426;-74
2021/09/21 02:34:11;;;;;;;;;;;11.00;99.90;;;;;;5093097;28;20374;-72
2021/09/21 02:36:41;;;;;;;;;;;11.00;99.90;;;;;;5094900;28;19908;-72
2021/09/21 02:39:08;;;;;;;;;;;10.90;99.90;;;;;;5094822;28;19946;-72
2021/09/21 02:41:33;;;;;;;;;;;10.90;99.90;;;;;;5094730;28;19930;-73
2021/09/21 02:43:59;;;;;;;;;;;11.00;99.90;;;;;;5094421;28;19908;-72
2021/09/21 02:46:24;;;;;;;;;;;11.00;99.90;;;;;;5094666;28;20055;-72
2021/09/21 02:48:50;;;;;;;;;;;11.00;99.90;;;;;;5094602;28;19908;-73
2021/09/21 02:51:15;;;;;;;;;;;11.00;99.90;;;;;;5094667;28;20274;-72
2021/09/21 02:53:41;;;;;;;;;;;11.00;99.90;;;;;;5093976;28;19908;-72
2021/09/21 02:56:06;;;;;;;;;;;11.00;99.90;;;;;;5093806;28;19919;-72
2021/09/21 02:58:32;;;;;;;;;;;11.00;99.90;;;;;;5094513;28;20374;-73
2021/09/21 03:00:59;;;;;;;;;;;11.00;99.90;;;;;;5094346;28;19912;-72
2021/09/21 03:03:29;;;;;;;;;;;11.00;99.90;;;;;;5094133;28;20045;-73
2021/09/21 03:06:07;;;;;;;;;;;11.00;99.90;;;;;;5093995;28;19928;-73
2021/09/21 03:08:35;;;;;;;;;;;11.00;99.90;;;;;;5094134;28;19908;-72
2021/09/21 03:11:15;;;;;;;;;;;11.00;99.90;;;;;;5094369;28;19908;-72
2021/09/21 03:19:03;;;;;;;;;;;11.00;99.90;;;;;;5093718;28;19931;-72
2021/09/21 03:21:29;;;;;;;;;;;11.00;99.90;;;;;;5094027;28;19908;-72
2021/09/21 03:23:54;;;;;;;;;;;11.00;99.90;;;;;;5093846;28;19945;-73
2021/09/21 03:26:21;;;;;;;;;;;11.00;99.90;;;;;;5093740;28;19944;-72
2021/09/21 03:28:46;;;;;;;;;;;11.00;99.90;;;;;;5093847;28;19915;-72
2021/09/21 03:31:12;;;;;;;;;;;11.00;99.90;;;;;;5093782;28;20389;-72
2021/09/21 03:33:37;;;;;;;;;;;11.00;99.90;;;;;;5093468;28;20022;-72
2021/09/21 03:36:04;;;;;;;;;;;11.00;99.90;;;;;;5093285;28;19919;-73
2021/09/21 03:38:30;;;;;;;;;;;11.00;99.90;;;;;;5093698;28;19908;-72
2021/09/21 03:40:55;;;;;;;;;;;10.90;99.90;;;;;;5093620;28;20296;-74
2021/09/21 03:43:21;;;;;;;;;;;10.90;99.90;;;;;;5093065;28;19908;-72
2021/09/21 03:45:46;;;;;;;;;;;10.90;99.90;;;;;;5093070;28;19991;-71
2021/09/21 03:48:12;;;;;;;;;;;10.90;99.90;;;;;;5093052;28;19912;-72
2021/09/21 03:50:37;;;;;;;;;;;10.90;99.90;;;;;;5093472;28;19908;-73
2021/09/21 03:53:03;;;;;;;;;;;11.00;99.90;;;;;;5093322;28;20328;-72
2021/09/21 03:55:29;;;;;;;;;;;10.90;99.90;;;;;;5092905;28;19912;-72
2021/09/21 03:57:54;;;;;;;;;;;11.00;99.90;;;;;;5093451;28;19962;-72
2021/09/21 04:00:20;;;;;;;;;;;10.90;99.90;;;;;;5093139;28;20273;-72
2021/09/21 04:02:46;;;;;;;;;;;11.00;99.90;;;;;;5093080;28;19909;-72
2021/09/21 04:05:11;;;;;;;;;;;11.00;99.90;;;;;;5092723;28;19916;-72
2021/09/21 04:07:37;;;;;;;;;;;11.00;99.90;;;;;;5093385;28;19908;-72
2021/09/21 04:10:03;;;;;;;;;;;11.00;99.90;;;;;;5093215;28;19915;-72
2021/09/21 04:12:29;;;;;;;;;;;11.00;99.90;;;;;;5093159;28;19946;-71
2021/09/21 04:14:54;;;;;;;;;;;11.00;99.90;;;;;;5088935;28;20429;-76
2021/09/21 04:17:20;;;;;;;;;;;11.00;99.90;;;;;;5091932;28;20293;-71
2021/09/21 04:19:45;;;;;;;;;;;11.00;99.90;;;;;;5092836;28;19916;-72
2021/09/21 04:22:11;;;;;;;;;;;11.00;99.90;;;;;;5092919;28;19915;-76
2021/09/21 04:24:37;;;;;;;;;;;11.00;99.90;;;;;;5092366;28;19919;-73
2021/09/21 04:27:03;;;;;;;;;;;11.00;99.90;;;;;;5092868;28;20336;-71
2021/09/21 04:29:29;;;;;;;;;;;11.00;99.90;;;;;;5092757;28;19908;-72
2021/09/21 04:31:56;;;;;;;;;;;10.90;99.90;;;;;;5092605;28;20390;-71
2021/09/21 04:34:22;;;;;;;;;;;11.00;99.90;;;;;;5092058;28;20387;-71
2021/09/21 04:36:47;;;;;;;;;;;11.00;99.90;;;;;;5091330;28;19917;-71
2021/09/21 04:39:13;;;;;;;;;;;11.00;99.90;;;;;;5092632;28;19999;-72
2021/09/21 04:41:39;;;;;;;;;;;11.00;99.90;;;;;;5092622;28;19908;-71
2021/09/21 04:44:05;;;;;;;;;;;11.00;99.90;;;;;;5092025;28;19912;-73
2021/09/21 04:46:33;;;;;;;;;;;10.90;99.90;;;;;;5091938;28;19959;-72
2021/09/21 04:48:59;;;;;;;;;;;10.90;99.90;;;;;;5092074;28;19995;-71
2021/09/21 04:51:24;;;;;;;;;;;10.80;99.90;;;;;;5092303;28;19959;-71
2021/09/21 04:53:50;;;;;;;;;;;10.80;99.90;;;;;;5092081;28;20002;-71
2021/09/21 04:56:15;;;;;;;;;;;10.80;99.90;;;;;;5090953;28;19912;-73
2021/09/21 04:58:41;;;;;;;;;;;10.80;99.90;;;;;;5092195;28;19912;-71
2021/09/21 05:01:06;;;;;;;;;;;10.80;99.90;;;;;;5092132;28;20576;-71
2021/09/21 05:03:32;;;;;;;;;;;10.80;99.90;;;;;;5085636;28;19912;-72
2021/09/21 05:05:57;;;;;;;;;;;10.80;99.90;;;;;;5091686;28;19916;-73
2021/09/21 05:08:23;;;;;;;;;;;10.80;99.90;;;;;;5092002;28;19943;-72
2021/09/21 05:10:48;;;;;;;;;;;10.90;99.90;;;;;;5091944;28;19908;-73
2021/09/21 05:13:14;;;;;;;;;;;10.80;99.90;;;;;;5091507;28;19915;-73
2021/09/21 05:15:39;;;;;;;;;;;10.80;99.90;;;;;;5090927;28;19912;-73
2021/09/21 05:18:05;;;;;;;;;;;10.90;99.90;;;;;;5091041;28;19919;-72
2021/09/21 05:20:30;;;;;;;;;;;10.80;99.90;;;;;;5090570;28;20002;-72
2021/09/21 05:22:56;;;;;;;;;;;10.80;99.90;;;;;;5091762;28;19947;-73
2021/09/21 05:25:22;;;;;;;;;;;10.80;99.90;;;;;;5091110;28;19915;-72
2021/09/21 05:27:48;;;;;;;;;;;10.80;99.90;;;;;;5089203;28;19919;-72
2021/09/21 05:30:15;;;;;;;;;;;10.80;99.90;;;;;;5088960;28;19908;-72
2021/09/21 05:32:41;;;;;;;;;;;10.80;99.90;;;;;;5091626;28;19989;-71
2021/09/21 05:35:07;;;;;;;;;;;10.80;99.90;;;;;;5090914;28;20016;-74
2021/09/21 05:37:32;;;;;;;;;;;10.80;99.90;;;;;;5091646;28;19915;-72
2021/09/21 05:39:58;;;;;;;;;;;10.80;99.90;;;;;;5091599;28;19912;-72
2021/09/21 05:42:24;;;;;;;;;;;10.80;99.90;;;;;;5091326;28;19968;-72
2021/09/21 05:44:49;;;;;;;;;;;10.80;99.90;;;;;;5090515;28;19944;-72
2021/09/21 05:47:15;;;;;;;;;;;10.80;99.90;;;;;;5090857;28;19912;-73
2021/09/21 05:49:40;;;;;;;;;;;10.80;99.90;;;;;;5091296;28;19907;-71
2021/09/21 05:52:06;;;;;;;;;;;10.80;99.90;;;;;;5091256;28;20370;-72
2021/09/21 05:54:32;;;;;;;;;;;10.80;99.90;;;;;;5090661;28;19914;-71
2021/09/21 05:56:57;;;;;;;;;;;10.80;99.90;;;;;;5091145;28;19912;-72
2021/09/21 05:59:23;;;;;;;;;;;10.80;99.90;;;;;;5090714;28;19959;-73
2021/09/21 06:01:48;;;;;;;;;;;10.80;99.90;;;;;;5091014;28;19953;-72
2021/09/21 06:04:14;;;;;;;;;;;10.80;99.90;;;;;;5090649;28;20340;-71
2021/09/21 06:06:40;;;;;;;;;;;10.70;99.90;;;;;;5090797;28;19929;-72
2021/09/21 06:09:05;;;;;;;;;;;10.70;99.90;;;;;;5091038;28;20397;-72
2021/09/21 06:11:34;;;;;;;;;;;10.70;99.90;;;;;;5090946;28;19931;-72
2021/09/21 06:14:03;;;;;;;;;;;10.70;99.90;;;;;;5090495;28;19915;-73
2021/09/21 06:16:29;;;;;;;;;;;10.70;99.90;;;;;;5090465;28;20261;-72
2021/09/21 06:18:55;;;;;;;;;;;10.70;99.90;;;;;;5090664;28;20366;-71
2021/09/21 06:21:20;;;;;;;;;;;10.80;99.90;;;;;;5090898;28;19908;-71
2021/09/21 06:23:46;;;;;;;;;;;10.80;99.90;;;;;;5091147;28;19908;-74
2021/09/21 06:26:11;;;;;;;;;;;10.80;99.90;;;;;;5090370;28;20426;-72
2021/09/21 06:28:37;;;;;;;;;;;10.70;99.90;;;;;;5090757;28;19964;-72
2021/09/21 06:31:03;;;;;;;;;;;10.70;99.90;;;;;;5090863;28;20034;-72
2021/09/21 06:33:29;;;;;;;;;;;10.60;99.90;;;;;;5091101;28;19920;-72
2021/09/21 06:35:54;;;;;;;;;;;10.60;99.90;;;;;;5090390;28;19919;-74
2021/09/21 06:38:20;;;;;;;;;;;10.60;99.90;;;;;;5090780;28;19914;-73
2021/09/21 06:40:45;;;;;;;;;;;10.60;99.90;;;;;;5090741;28;19920;-73
2021/09/21 06:43:11;;;;;;;;;;;10.60;99.90;;;;;;5090559;28;19908;-71
2021/09/21 06:45:37;;;;;;;;;;;10.70;99.90;;;;;;5090177;28;19908;-73
2021/09/21 06:48:02;;;;;;;;;;;10.80;99.90;;;;;;5090413;28;19923;-71
2021/09/21 06:50:28;;;;;;;;;;;10.90;99.90;;;;;;5090762;28;19908;-71
2021/09/21 06:52:53;;;;;;;;;;;11.00;99.90;;;;;;5089801;28;19912;-72
2021/09/21 06:55:19;;;;;;;;;;;11.10;99.90;;;;;;5090404;28;19912;-72
2021/09/21 06:57:48;;;;;;;;;;;11.30;99.90;;;;;;5087201;28;19914;-71
2021/09/21 07:00:13;;;;;;;;;;;11.60;99.90;;;;;;5088871;28;19908;-72
2021/09/21 07:02:40;;;;;;;;;;;11.80;99.90;;;;;;5089113;28;19915;-72
2021/09/21 07:05:06;;;;;;;;;;;12.30;99.90;;;;;;5088641;28;19920;-71
2021/09/21 07:07:31;;;;;;;;;;;12.60;99.90;;;;;;5092025;28;19917;-71
2021/09/21 07:09:57;;;;;;;;;;;12.90;99.90;;;;;;5087898;28;20339;-71
2021/09/21 07:12:22;;;;;;;;;;;13.10;99.90;;;;;;5088597;28;19999;-72
2021/09/21 07:14:48;;;;;;;;;;;13.10;99.90;;;;;;5093668;28;19916;-72
2021/09/21 07:17:13;;;;;;;;;;;13.10;99.90;;;;;;5089020;28;19931;-72
2021/09/21 07:19:39;;;;;;;;;;;13.10;99.90;;;;;;5092359;28;19964;-71
2021/09/21 07:22:04;;;;;;;;;;;13.20;99.90;;;;;;5095856;28;19998;-71
2021/09/21 07:24:30;;;;;;;;;;;13.10;99.90;;;;;;5092210;28;19941;-71
2021/09/21 07:26:55;;;;;;;;;;;13.00;99.90;;;;;;5093016;28;20014;-72
2021/09/21 07:29:21;;;;;;;;;;;13.10;99.90;;;;;;5097019;28;19909;-72
2021/09/21 07:31:48;;;;;;;;;;;13.20;99.90;;;;;;5094370;28;19908;-71
2021/09/21 07:34:13;;;;;;;;;;;13.30;99.90;;;;;;5091837;28;19955;-71
2021/09/21 07:36:39;;;;;;;;;;;13.20;99.90;;;;;;5092118;28;19910;-72
2021/09/21 07:39:05;;;;;;;;;;;13.40;99.90;;;;;;5093157;28;19908;-72
2021/09/21 07:41:31;;;;;;;;;;;13.60;99.90;;;;;;5086770;28;19915;-71
2021/09/21 07:43:56;;;;;;;;;;;13.70;99.90;;;;;;5092143;28;19908;-72
2021/09/21 07:46:22;;;;;;;;;;;14.10;99.90;;;;;;5091945;28;19914;-71
2021/09/21 07:48:47;;;;;;;;;;;14.00;99.90;;;;;;5091767;28;20267;-72
2021/09/21 07:51:13;;;;;;;;;;;14.10;99.90;;;;;;5096272;28;19908;-72
2021/09/21 07:53:39;;;;;;;;;;;14.00;99.90;;;;;;5093195;28;19918;-71
2021/09/21 07:56:04;;;;;;;;;;;14.00;99.90;;;;;;5090272;28;19966;-72
2021/09/21 07:58:30;;;;;;;;;;;13.90;99.90;;;;;;5089443;28;19940;-71
2021/09/21 08:00:55;;;;;;;;;;;14.10;99.90;;;;;;5090840;28;19919;-72
2021/09/21 08:03:21;;;;;;;;;;;13.60;99.90;;;;;;5091761;28;19908;-72
2021/09/21 08:05:47;;;;;;;;;;;13.80;99.90;;;;;;5094526;28;19912;-72
2021/09/21 08:08:15;;;;;;;;;;;14.20;99.90;;;;;;5095214;28;19941;-72
2021/09/21 08:10:41;;;;;;;;;;;14.40;99.90;;;;;;5093490;28;20471;-72
2021/09/21 08:13:06;;;;;;;;;;;14.10;99.90;;;;;;5092945;28;19915;-72
2021/09/21 08:15:32;;;;;;;;;;;14.40;99.90;;;;;;5093418;28;20258;-72
2021/09/21 08:17:58;;;;;;;;;;;14.60;99.90;;;;;;5094392;28;20006;-72
2021/09/21 08:20:23;;;;;;;;;;;15.60;99.90;;;;;;5092129;28;19954;-72
2021/09/21 08:22:49;;;;;;;;;;;17.70;99.90;;;;;;5090112;28;19908;-72
2021/09/21 08:25:15;;;;;;;;;;;17.30;99.90;;;;;;5092731;28;20439;-72
2021/09/21 08:27:41;;;;;;;;;;;16.60;99.90;;;;;;5094942;28;19923;-72
2021/09/21 08:30:07;;;;;;;;;;;15.90;99.90;;;;;;5094601;28;19915;-72
2021/09/21 08:32:33;;;;;;;;;;;15.20;99.90;;;;;;5090574;28;20270;-72
2021/09/21 08:34:58;;;;;;;;;;;15.00;99.90;;;;;;5091922;28;20341;-72
2021/09/21 08:37:24;;;;;;;;;;;14.90;99.90;;;;;;5092456;28;19951;-72
2021/09/21 08:39:50;;;;;;;;;;;15.00;99.90;;;;;;5092423;28;19908;-72
2021/09/21 08:42:15;;;;;;;;;;;16.80;99.90;;;;;;5085712;28;20580;-72
2021/09/21 08:44:41;;;;;;;;;;;18.00;99.90;;;;;;5089602;28;20346;-72
2021/09/21 08:47:07;;;;;;;;;;;19.70;99.90;;;;;;5088559;28;19908;-72
2021/09/21 08:49:32;;;;;;;;;;;19.40;99.90;;;;;;5091253;28;19908;-72
2021/09/21 08:51:59;;;;;;;;;;;20.40;99.90;;;;;;5091951;28;19912;-72
2021/09/21 08:54:25;;;;;;;;;;;20.80;97.90;;;;;;5091711;28;20008;-73
2021/09/21 08:56:52;;;;;;;;;;;20.40;96.80;;;;;;5091090;28;19943;-73
2021/09/21 08:59:26;;;;;;;;;;;18.80;99.40;;;;;;5092146;28;19915;-72
2021/09/21 09:01:52;;;;;;;;;;;20.10;98.20;;;;;;5092523;28;19931;-72
2021/09/21 09:04:17;;;;;;;;;;;21.70;95.50;;;;;;5091852;28;20358;-71
2021/09/21 09:06:44;;;;;;;;;;;20.80;96.50;;;;;;5091976;28;19934;-72
2021/09/21 09:09:11;;;;;;;;;;;22.30;94.70;;;;;;5090740;28;19919;-71
2021/09/21 09:11:37;;;;;;;;;;;22.40;92.90;;;;;;5091919;28;19951;-71
2021/09/21 09:14:02;;;;;;;;;;;22.60;91.70;;;;;;5091382;28;19912;-71
2021/09/21 09:16:33;;;;;;;;;;;21.50;91.80;;;;;;5091347;28;19908;-71
2021/09/21 09:19:00;;;;;;;;;;;22.10;92.70;;;;;;5091561;28;19960;-71
2021/09/21 09:21:25;;;;;;;;;;;21.00;91.60;;;;;;5091601;28;20453;-72
2021/09/21 09:23:53;;;;;;;;;;;21.40;91.50;;;;;;5091359;28;20007;-72
2021/09/21 09:26:20;;;;;;;;;;;21.30;90.90;;;;;;5091367;28;19915;-72
2021/09/21 09:28:46;;;;;;;;;;;20.80;91.50;;;;;;5091592;28;20546;-72
2021/09/21 09:31:21;;;;;;;;;;;20.70;91.70;;;;;;5091629;28;19916;-73
2021/09/21 09:33:46;;;;;;;;;;;21.00;91.60;;;;;;5091384;28;19908;-71
2021/09/21 09:36:19;;;;;;;;;;;22.70;89.90;;;;;;5090914;28;19919;-72
2021/09/21 09:38:45;;;;;;;;;;;21.30;90.70;;;;;;5091505;28;19915;-71
2021/09/21 09:41:13;;;;;;;;;;;20.90;93.10;;;;;;5090996;28;19908;-72
2021/09/21 09:43:42;;;;;;;;;;;23.00;90.20;;;;;;5091206;28;20004;-72
2021/09/21 09:46:14;;;;;;;;;;;23.50;87.90;;;;;;5090716;28;19970;-71
2021/09/21 09:48:40;;;;;;;;;;;22.80;88.20;;;;;;5090977;28;19914;-72
2021/09/21 09:51:06;;;;;;;;;;;22.90;86.20;;;;;;5091252;28;19908;-71
2021/09/21 09:53:32;;;;;;;;;;;21.00;90.20;;;;;;5091204;28;19915;-71
2021/09/21 09:55:58;;;;;;;;;;;21.70;91.30;;;;;;5090774;28;20007;-71
2021/09/21 09:58:24;;;;;;;;;;;22.10;88.50;;;;;;5091171;28;19946;-71
2021/09/21 10:00:49;;;;;;;;;;;20.40;90.10;;;;;;5091173;28;19908;-71
2021/09/21 10:03:15;;;;;;;;;;;18.70;93.80;;;;;;5090921;28;19912;-72
2021/09/21 10:05:41;;;;;;;;;;;20.30;91.20;;;;;;5090584;28;20355;-73
2021/09/21 10:08:09;;;;;;;;;;;21.00;89.40;;;;;;5091188;28;19908;-71
2021/09/21 10:10:36;;;;;;;;;;;21.60;88.50;;;;;;5091064;28;20370;-71
2021/09/21 10:13:03;;;;;;;;;;;21.10;88.10;;;;;;5090947;28;19966;-71
2021/09/21 10:15:29;;;;;;;;;;;21.60;86.50;;;;;;5090191;28;20007;-71
2021/09/21 10:17:55;;;;;;;;;;;22.90;82.80;;;;;;5090956;28;19957;-71
2021/09/21 10:20:31;;;;;;;;;;;24.20;83.10;;;;;;5091229;28;19908;-71
2021/09/21 10:22:57;;;;;;;;;;;23.20;80.10;;;;;;5091191;28;19909;-72
2021/09/21 10:25:30;;;;;;;;;;;20.90;85.30;;;;;;5090692;28;19909;-72
2021/09/21 10:27:56;;;;;;;;;;;21.20;89.60;;;;;;5090997;28;19920;-72
2021/09/21 10:30:23;;;;;;;;;;;21.80;86.40;;;;;;5090740;28;19912;-71
2021/09/21 10:32:49;;;;;;;;;;;22.10;85.90;;;;;;5089862;28;19934;-71
2021/09/21 10:35:16;;;;;;;;;;;21.40;86.30;;;;;;5090452;28;19920;-71
2021/09/21 10:37:41;;;;;;;;;;;20.20;88.90;;;;;;5091200;28;20007;-71
2021/09/21 10:40:07;;;;;;;;;;;20.60;89.70;;;;;;5091088;28;19999;-72
2021/09/21 10:42:33;;;;;;;;;;;21.80;89.40;;;;;;5091068;28;19908;-72
2021/09/21 10:45:02;;;;;;;;;;;23.30;85.00;;;;;;5090345;28;19912;-73
2021/09/21 10:47:29;;;;;;;;;;;22.20;86.70;;;;;;5090779;28;19930;-72
2021/09/21 10:50:14;;;;;;;;;;;20.40;87.50;;;;;;5090850;28;19908;-72
2021/09/21 10:52:40;;;;;;;;;;;18.70;90.70;;;;;;5090658;28;19912;-72
2021/09/21 10:55:07;;;;;;;;;;;19.50;91.10;;;;;;5094046;28;19918;-72
2021/09/21 10:57:34;;;;;;;;;;;20.20;89.90;;;;;;5094778;28;19918;-73
2021/09/21 11:00:00;;;;;;;;;;;22.10;87.30;;;;;;5094709;28;19908;-72
2021/09/21 11:02:30;;;;;;;;;;;21.90;86.30;;;;;;5094760;28;20014;-72
2021/09/21 11:04:56;;;;;;;;;;;20.80;90.00;;;;;;5093916;28;19920;-72
2021/09/21 11:07:22;;;;;;;;;;;19.30;92.00;;;;;;5094633;28;20385;-73
2021/09/21 11:09:52;;;;;;;;;;;19.40;91.60;;;;;;5094215;28;20290;-72
2021/09/21 11:12:19;;;;;;;;;;;20.00;90.30;;;;;;5094501;28;19908;-72
2021/09/21 11:14:46;;;;;;;;;;;19.20;90.40;;;;;;5093834;28;19912;-72
2021/09/21 11:17:12;;;;;;;;;;;18.60;92.50;;;;;;5094180;28;19908;-72
2021/09/21 11:19:38;;;;;;;;;;;18.30;92.00;;;;;;5094240;28;19919;-72
2021/09/21 11:22:05;;;;;;;;;;;18.10;91.80;;;;;;5094201;28;20370;-72
2021/09/21 11:24:31;;;;;;;;;;;18.00;93.40;;;;;;5093797;28;19908;-72
2021/09/21 11:26:58;;;;;;;;;;;17.60;92.40;;;;;;5094293;28;20419;-72
2021/09/21 11:29:24;;;;;;;;;;;18.40;92.60;;;;;;5094206;28;19912;-73
2021/09/21 11:31:50;;;;;;;;;;;18.60;93.90;;;;;;5094162;28;19977;-72
2021/09/21 11:34:16;;;;;;;;;;;17.90;94.10;;;;;;5093339;28;19912;-73
2021/09/21 11:36:48;;;;;;;;;;;17.30;94.90;;;;;;5094022;28;20540;-72
2021/09/21 11:39:14;;;;;;;;;;;17.20;93.10;;;;;;5093861;28;19908;-74
2021/09/21 11:41:39;;;;;;;;;;;17.40;94.70;;;;;;5093813;28;19985;-72
2021/09/21 11:44:05;;;;;;;;;;;17.10;94.70;;;;;;5093467;28;19919;-72
2021/09/21 11:46:31;;;;;;;;;;;16.50;95.50;;;;;;5093292;28;19955;-72
2021/09/21 11:48:58;;;;;;;;;;;16.60;96.20;;;;;;5093495;28;19916;-71
2021/09/21 11:51:24;;;;;;;;;;;16.70;95.50;;;;;;5093470;28;19937;-71
2021/09/21 11:53:53;;;;;;;;;;;16.70;95.20;;;;;;5093285;28;20370;-72
2021/09/21 11:56:20;;;;;;;;;;;17.10;95.90;;;;;;5093182;28;19973;-72
2021/09/21 11:58:46;;;;;;;;;;;17.30;94.60;;;;;;5092096;28;19912;-71
2021/09/21 12:01:12;;;;;;;;;;;17.10;94.30;;;;;;5093497;28;19915;-72
2021/09/21 12:03:37;;;;;;;;;;;17.10;95.40;;;;;;5092738;28;19912;-71
2021/09/21 12:06:04;;;;;;;;;;;16.60;95.90;;;;;;5093035;28;19909;-72
2021/09/21 12:08:36;;;;;;;;;;;16.70;94.70;;;;;;5093340;28;19995;-71
2021/09/21 12:11:06;;;;;;;;;;;16.40;95.00;;;;;;5093249;28;19931;-71
2021/09/21 12:13:32;;;;;;;;;;;16.20;95.30;;;;;;5093141;28;19908;-71
2021/09/21 12:15:59;;;;;;;;;;;16.60;95.80;;;;;;5092405;28;19970;-72
2021/09/21 12:18:26;;;;;;;;;;;16.90;95.70;;;;;;5087422;28;19908;-71
2021/09/21 12:20:53;;;;;;;;;;;17.00;95.20;;;;;;5092813;28;19995;-72
2021/09/21 12:23:20;;;;;;;;;;;16.90;96.20;;;;;;5093006;28;19908;-71
2021/09/21 12:25:46;;;;;;;;;;;16.90;96.00;;;;;;5092475;28;19912;-72
2021/09/21 12:28:11;;;;;;;;;;;17.40;95.20;;;;;;5092485;28;19908;-73
2021/09/21 12:30:40;;;;;;;;;;;17.00;95.20;;;;;;5092713;28;19936;-71
2021/09/21 12:33:06;;;;;;;;;;;16.90;95.00;;;;;;5088044;28;20459;-71
2021/09/21 12:35:33;;;;;;;;;;;16.70;94.30;;;;;;5092335;28;20579;-73
2021/09/21 12:38:00;;;;;;;;;;;17.10;94.60;;;;;;5092849;28;19915;-71
2021/09/21 12:40:26;;;;;;;;;;;17.10;95.50;;;;;;5092770;28;19912;-71
2021/09/21 12:42:51;;;;;;;;;;;17.00;95.60;;;;;;5092717;28;19915;-71
2021/09/21 12:45:17;;;;;;;;;;;17.20;95.00;;;;;;5092157;28;20370;-72
2021/09/21 12:47:42;;;;;;;;;;;17.40;96.70;;;;;;5092479;28;20010;-72
2021/09/21 12:50:19;;;;;;;;;;;17.30;95.60;;;;;;5092556;28;20270;-71
2021/09/21 12:52:51;;;;;;;;;;;17.10;94.90;;;;;;5092574;28;19915;-71
2021/09/21 12:55:26;;;;;;;;;;;16.80;95.40;;;;;;5091748;28;19965;-72
2021/09/21 12:57:53;;;;;;;;;;;16.70;95.40;;;;;;5092203;28;20326;-71
2021/09/21 13:00:18;;;;;;;;;;;16.70;95.80;;;;;;5092034;28;19912;-71
2021/09/21 13:02:44;;;;;;;;;;;16.80;96.50;;;;;;5092341;28;19931;-71
2021/09/21 13:05:09;;;;;;;;;;;17.00;95.80;;;;;;5091682;28;19944;-72
2021/09/21 13:07:35;;;;;;;;;;;17.40;95.40;;;;;;5092279;28;19912;-72
2021/09/21 13:10:00;;;;;;;;;;;17.50;95.20;;;;;;5092043;28;19909;-71
2021/09/21 13:12:27;;;;;;;;;;;17.70;95.10;;;;;;5092245;28;19943;-71
2021/09/21 13:14:52;;;;;;;;;;;17.40;95.40;;;;;;5091391;28;19912;-71
2021/09/21 13:17:18;;;;;;;;;;;16.80;95.20;;;;;;5091222;28;19969;-71
2021/09/21 13:19:43;;;;;;;;;;;16.80;97.50;;;;;;5092049;28;19961;-73
2021/09/21 13:22:09;;;;;;;;;;;16.80;95.80;;;;;;5091755;28;19916;-71
2021/09/21 13:24:35;;;;;;;;;;;16.30;96.00;;;;;;5091399;28;19911;-71
2021/09/21 13:27:00;;;;;;;;;;;16.40;98.60;;;;;;5091528;28;19973;-72
2021/09/21 13:29:26;;;;;;;;;;;16.70;96.90;;;;;;5088451;28;20588;-72
2021/09/21 13:31:52;;;;;;;;;;;16.80;96.90;;;;;;5090130;28;19928;-71
2021/09/21 13:34:17;;;;;;;;;;;16.90;97.80;;;;;;5089582;28;20385;-72
2021/09/21 13:36:43;;;;;;;;;;;16.90;97.40;;;;;;5090911;28;20305;-72
2021/09/21 13:39:08;;;;;;;;;;;16.70;96.20;;;;;;5084880;28;20370;-72
2021/09/21 13:41:38;;;;;;;;;;;16.80;96.90;;;;;;5091456;28;19915;-71
2021/09/21 13:44:04;;;;;;;;;;;16.60;96.10;;;;;;5091144;28;19995;-71
2021/09/21 13:46:29;;;;;;;;;;;16.30;96.90;;;;;;5091390;28;20440;-71
2021/09/21 13:48:54;;;;;;;;;;;16.20;96.90;;;;;;5091342;28;19915;-72
2021/09/21 13:51:20;;;;;;;;;;;16.30;97.80;;;;;;5091386;28;20377;-71
2021/09/21 13:53:45;;;;;;;;;;;16.20;99.30;;;;;;5091115;28;19908;-71
2021/09/21 13:56:11;;;;;;;;;;;16.20;97.70;;;;;;5090647;28;19911;-71
2021/09/21 13:58:37;;;;;;;;;;;16.10;97.80;;;;;;5089984;28;19908;-73
2021/09/21 14:01:02;;;;;;;;;;;16.10;97.50;;;;;;5090945;28;19987;-71
2021/09/21 14:03:29;;;;;;;;;;;16.30;97.30;;;;;;5091387;28;19916;-71
2021/09/21 14:05:55;;;;;;;;;;;16.30;97.50;;;;;;5090964;28;19966;-73
2021/09/21 14:08:20;;;;;;;;;;;16.30;98.30;;;;;;5089971;28;19909;-71
2021/09/21 14:10:48;;;;;;;;;;;16.40;98.30;;;;;;5091258;28;19908;-71
2021/09/21 14:13:14;;;;;;;;;;;16.50;97.90;;;;;;5091107;28;19919;-71
2021/09/21 14:15:39;;;;;;;;;;;16.40;97.10;;;;;;5090567;28;19912;-73
2021/09/21 14:18:05;;;;;;;;;;;16.20;98.10;;;;;;5090367;28;20620;-71
2021/09/21 14:20:31;;;;;;;;;;;16.50;98.20;;;;;;5090926;28;19908;-71
2021/09/21 14:22:56;;;;;;;;;;;16.50;97.30;;;;;;5091048;28;19908;-71